sensor_id;sensor_type;location;lat;lon;timestamp;P1;durP1;ratioP1;P2;durP2;ratioP2
56122;SDS011;42426;46.104;19.656;2023-07-13T00:02:14;12.45;;;7.13;;
56122;SDS011;42426;46.104;19.656;2023-07-13T00:04:41;16.73;;;7.20;;
56122;SDS011;42426;46.104;19.656;2023-07-13T00:07:07;13.23;;;7.95;;
56122;SDS011;42426;46.104;19.656;2023-07-13T00:09:33;12.55;;;6.68;;
56122;SDS011;42426;46.104;19.656;2023-07-13T00:12:00;14.52;;;6.30;;
56122;SDS011;42426;46.104;19.656;2023-07-13T00:14:27;17.80;;;6.93;;
56122;SDS011;42426;46.104;19.656;2023-07-13T00:16:54;14.60;;;6.22;;
56122;SDS011;42426;46.104;19.656;2023-07-13T00:19:20;16.92;;;7.00;;
56122;SDS011;42426;46.104;19.656;2023-07-13T00:21:47;12.25;;;7.20;;
56122;SDS011;42426;46.104;19.656;2023-07-13T00:24:14;13.77;;;6.97;;
56122;SDS011;42426;46.104;19.656;2023-07-13T00:26:47;17.70;;;7.03;;
56122;SDS011;42426;46.104;19.656;2023-07-13T00:29:13;14.75;;;6.60;;
56122;SDS011;42426;46.104;19.656;2023-07-13T00:31:41;11.85;;;6.78;;
56122;SDS011;42426;46.104;19.656;2023-07-13T00:34:07;21.27;;;7.90;;
56122;SDS011;42426;46.104;19.656;2023-07-13T00:36:33;9.77;;;6.78;;
56122;SDS011;42426;46.104;19.656;2023-07-13T00:38:59;16.77;;;7.72;;
56122;SDS011;42426;46.104;19.656;2023-07-13T00:41:25;12.65;;;7.30;;
56122;SDS011;42426;46.104;19.656;2023-07-13T00:43:51;18.75;;;8.55;;
56122;SDS011;42426;46.104;19.656;2023-07-13T00:46:25;15.80;;;7.78;;
56122;SDS011;42426;46.104;19.656;2023-07-13T00:48:51;15.23;;;7.60;;
56122;SDS011;42426;46.104;19.656;2023-07-13T00:51:21;13.32;;;7.82;;
56122;SDS011;42426;46.104;19.656;2023-07-13T00:53:48;21.23;;;8.18;;
56122;SDS011;42426;46.104;19.656;2023-07-13T00:56:14;15.40;;;7.03;;
56122;SDS011;42426;46.104;19.656;2023-07-13T00:58:40;15.75;;;7.32;;
56122;SDS011;42426;46.104;19.656;2023-07-13T01:01:06;12.68;;;7.65;;
56122;SDS011;42426;46.104;19.656;2023-07-13T01:03:32;14.60;;;6.78;;
56122;SDS011;42426;46.104;19.656;2023-07-13T01:06:00;12.70;;;8.20;;
56122;SDS011;42426;46.104;19.656;2023-07-13T01:08:26;11.95;;;6.78;;
56122;SDS011;42426;46.104;19.656;2023-07-13T01:10:53;13.18;;;7.60;;
56122;SDS011;42426;46.104;19.656;2023-07-13T01:13:19;13.88;;;7.35;;
56122;SDS011;42426;46.104;19.656;2023-07-13T01:15:46;15.35;;;7.40;;
56122;SDS011;42426;46.104;19.656;2023-07-13T01:18:17;19.17;;;7.47;;
56122;SDS011;42426;46.104;19.656;2023-07-13T01:21:03;18.25;;;7.78;;
56122;SDS011;42426;46.104;19.656;2023-07-13T01:23:29;15.90;;;6.78;;
56122;SDS011;42426;46.104;19.656;2023-07-13T01:25:56;13.98;;;7.97;;
56122;SDS011;42426;46.104;19.656;2023-07-13T01:28:23;14.77;;;7.85;;
56122;SDS011;42426;46.104;19.656;2023-07-13T01:30:52;13.85;;;6.82;;
56122;SDS011;42426;46.104;19.656;2023-07-13T01:33:19;11.85;;;6.78;;
56122;SDS011;42426;46.104;19.656;2023-07-13T01:35:45;14.38;;;6.97;;
56122;SDS011;42426;46.104;19.656;2023-07-13T01:38:13;12.93;;;6.97;;
56122;SDS011;42426;46.104;19.656;2023-07-13T01:40:40;12.02;;;7.40;;
56122;SDS011;42426;46.104;19.656;2023-07-13T01:43:06;12.90;;;7.03;;
56122;SDS011;42426;46.104;19.656;2023-07-13T01:45:33;13.82;;;8.20;;
56122;SDS011;42426;46.104;19.656;2023-07-13T01:47:59;16.17;;;7.03;;
56122;SDS011;42426;46.104;19.656;2023-07-13T01:50:26;25.15;;;8.63;;
56122;SDS011;42426;46.104;19.656;2023-07-13T01:52:52;18.17;;;7.97;;
56122;SDS011;42426;46.104;19.656;2023-07-13T01:55:19;13.23;;;7.10;;
56122;SDS011;42426;46.104;19.656;2023-07-13T01:57:45;14.52;;;7.38;;
56122;SDS011;42426;46.104;19.656;2023-07-13T02:00:11;15.73;;;8.07;;
56122;SDS011;42426;46.104;19.656;2023-07-13T02:02:38;14.73;;;7.13;;
56122;SDS011;42426;46.104;19.656;2023-07-13T02:05:04;17.45;;;6.70;;
56122;SDS011;42426;46.104;19.656;2023-07-13T02:07:30;17.13;;;6.72;;
56122;SDS011;42426;46.104;19.656;2023-07-13T02:09:56;14.20;;;7.40;;
56122;SDS011;42426;46.104;19.656;2023-07-13T02:12:22;15.55;;;7.75;;
56122;SDS011;42426;46.104;19.656;2023-07-13T02:14:48;20.95;;;7.53;;
56122;SDS011;42426;46.104;19.656;2023-07-13T02:17:15;16.83;;;7.45;;
56122;SDS011;42426;46.104;19.656;2023-07-13T02:19:41;14.75;;;7.03;;
56122;SDS011;42426;46.104;19.656;2023-07-13T02:22:07;13.75;;;6.82;;
56122;SDS011;42426;46.104;19.656;2023-07-13T02:24:33;14.57;;;7.40;;
56122;SDS011;42426;46.104;19.656;2023-07-13T02:26:59;15.98;;;7.85;;
56122;SDS011;42426;46.104;19.656;2023-07-13T02:29:25;14.18;;;8.20;;
56122;SDS011;42426;46.104;19.656;2023-07-13T02:31:51;13.57;;;7.28;;
56122;SDS011;42426;46.104;19.656;2023-07-13T02:34:17;21.08;;;7.45;;
56122;SDS011;42426;46.104;19.656;2023-07-13T02:36:43;11.30;;;6.93;;
56122;SDS011;42426;46.104;19.656;2023-07-13T02:39:09;19.63;;;7.70;;
56122;SDS011;42426;46.104;19.656;2023-07-13T02:41:37;14.27;;;7.68;;
56122;SDS011;42426;46.104;19.656;2023-07-13T02:44:03;20.20;;;8.27;;
56122;SDS011;42426;46.104;19.656;2023-07-13T02:46:29;14.82;;;7.07;;
56122;SDS011;42426;46.104;19.656;2023-07-13T02:48:55;14.95;;;7.50;;
56122;SDS011;42426;46.104;19.656;2023-07-13T02:51:22;12.75;;;7.63;;
56122;SDS011;42426;46.104;19.656;2023-07-13T02:53:48;13.88;;;8.18;;
56122;SDS011;42426;46.104;19.656;2023-07-13T02:56:14;21.40;;;7.22;;
56122;SDS011;42426;46.104;19.656;2023-07-13T02:58:40;13.40;;;6.95;;
56122;SDS011;42426;46.104;19.656;2023-07-13T03:01:07;13.80;;;6.95;;
56122;SDS011;42426;46.104;19.656;2023-07-13T03:03:33;14.00;;;6.78;;
56122;SDS011;42426;46.104;19.656;2023-07-13T03:06:00;11.75;;;6.85;;
56122;SDS011;42426;46.104;19.656;2023-07-13T03:08:28;12.77;;;6.97;;
56122;SDS011;42426;46.104;19.656;2023-07-13T03:11:01;15.40;;;7.47;;
56122;SDS011;42426;46.104;19.656;2023-07-13T03:13:28;12.90;;;7.00;;
56122;SDS011;42426;46.104;19.656;2023-07-13T03:15:54;11.82;;;7.60;;
56122;SDS011;42426;46.104;19.656;2023-07-13T03:18:20;16.50;;;7.75;;
56122;SDS011;42426;46.104;19.656;2023-07-13T03:20:46;20.60;;;7.68;;
56122;SDS011;42426;46.104;19.656;2023-07-13T03:23:14;14.30;;;8.13;;
56122;SDS011;42426;46.104;19.656;2023-07-13T03:25:41;14.65;;;8.00;;
56122;SDS011;42426;46.104;19.656;2023-07-13T03:28:06;10.45;;;7.07;;
56122;SDS011;42426;46.104;19.656;2023-07-13T03:30:32;13.70;;;8.35;;
56122;SDS011;42426;46.104;19.656;2023-07-13T03:32:58;14.18;;;8.15;;
56122;SDS011;42426;46.104;19.656;2023-07-13T03:35:23;14.05;;;7.43;;
56122;SDS011;42426;46.104;19.656;2023-07-13T03:37:49;16.70;;;9.20;;
56122;SDS011;42426;46.104;19.656;2023-07-13T03:40:16;16.75;;;8.18;;
56122;SDS011;42426;46.104;19.656;2023-07-13T03:42:42;18.52;;;9.02;;
56122;SDS011;42426;46.104;19.656;2023-07-13T03:45:08;20.98;;;9.32;;
56122;SDS011;42426;46.104;19.656;2023-07-13T03:47:34;16.48;;;8.05;;
56122;SDS011;42426;46.104;19.656;2023-07-13T03:49:59;17.65;;;8.05;;
56122;SDS011;42426;46.104;19.656;2023-07-13T03:52:25;19.67;;;9.90;;
56122;SDS011;42426;46.104;19.656;2023-07-13T03:54:51;20.52;;;9.13;;
56122;SDS011;42426;46.104;19.656;2023-07-13T03:57:18;17.30;;;8.77;;
56122;SDS011;42426;46.104;19.656;2023-07-13T03:59:44;18.58;;;9.05;;
56122;SDS011;42426;46.104;19.656;2023-07-13T04:02:10;15.18;;;8.13;;
56122;SDS011;42426;46.104;19.656;2023-07-13T04:04:36;15.15;;;8.45;;
56122;SDS011;42426;46.104;19.656;2023-07-13T04:07:05;12.15;;;8.60;;
56122;SDS011;42426;46.104;19.656;2023-07-13T04:09:32;20.45;;;8.07;;
56122;SDS011;42426;46.104;19.656;2023-07-13T04:11:58;14.75;;;9.27;;
56122;SDS011;42426;46.104;19.656;2023-07-13T04:14:24;16.63;;;8.25;;
56122;SDS011;42426;46.104;19.656;2023-07-13T04:16:50;21.50;;;9.50;;
56122;SDS011;42426;46.104;19.656;2023-07-13T04:19:16;18.00;;;8.95;;
56122;SDS011;42426;46.104;19.656;2023-07-13T04:21:42;16.85;;;9.15;;
56122;SDS011;42426;46.104;19.656;2023-07-13T04:24:08;16.58;;;9.57;;
56122;SDS011;42426;46.104;19.656;2023-07-13T04:26:34;20.50;;;11.27;;
56122;SDS011;42426;46.104;19.656;2023-07-13T04:29:01;18.70;;;8.90;;
56122;SDS011;42426;46.104;19.656;2023-07-13T04:31:29;14.60;;;8.50;;
56122;SDS011;42426;46.104;19.656;2023-07-13T04:33:55;16.27;;;9.13;;
56122;SDS011;42426;46.104;19.656;2023-07-13T04:36:21;22.38;;;9.35;;
56122;SDS011;42426;46.104;19.656;2023-07-13T04:38:48;21.63;;;9.60;;
56122;SDS011;42426;46.104;19.656;2023-07-13T04:41:14;15.95;;;8.75;;
56122;SDS011;42426;46.104;19.656;2023-07-13T04:43:40;16.60;;;9.48;;
56122;SDS011;42426;46.104;19.656;2023-07-13T04:46:07;13.70;;;8.65;;
56122;SDS011;42426;46.104;19.656;2023-07-13T04:48:34;18.42;;;9.40;;
56122;SDS011;42426;46.104;19.656;2023-07-13T04:51:00;19.38;;;9.25;;
56122;SDS011;42426;46.104;19.656;2023-07-13T04:53:27;19.80;;;8.80;;
56122;SDS011;42426;46.104;19.656;2023-07-13T04:55:53;18.85;;;8.50;;
56122;SDS011;42426;46.104;19.656;2023-07-13T04:58:19;11.13;;;7.07;;
56122;SDS011;42426;46.104;19.656;2023-07-13T05:00:46;17.20;;;8.35;;
56122;SDS011;42426;46.104;19.656;2023-07-13T05:03:12;21.48;;;9.25;;
56122;SDS011;42426;46.104;19.656;2023-07-13T05:05:38;14.93;;;8.75;;
56122;SDS011;42426;46.104;19.656;2023-07-13T05:08:04;13.65;;;8.23;;
56122;SDS011;42426;46.104;19.656;2023-07-13T05:10:30;14.05;;;7.68;;
56122;SDS011;42426;46.104;19.656;2023-07-13T05:12:56;19.45;;;8.77;;
56122;SDS011;42426;46.104;19.656;2023-07-13T05:15:22;17.10;;;8.82;;
56122;SDS011;42426;46.104;19.656;2023-07-13T05:17:49;16.77;;;9.15;;
56122;SDS011;42426;46.104;19.656;2023-07-13T05:20:15;21.13;;;9.45;;
56122;SDS011;42426;46.104;19.656;2023-07-13T05:22:42;16.42;;;8.13;;
56122;SDS011;42426;46.104;19.656;2023-07-13T05:25:08;20.35;;;9.02;;
56122;SDS011;42426;46.104;19.656;2023-07-13T05:27:35;15.57;;;7.72;;
56122;SDS011;42426;46.104;19.656;2023-07-13T05:30:02;21.40;;;8.63;;
56122;SDS011;42426;46.104;19.656;2023-07-13T05:32:31;18.02;;;8.02;;
56122;SDS011;42426;46.104;19.656;2023-07-13T05:34:57;14.40;;;7.70;;
56122;SDS011;42426;46.104;19.656;2023-07-13T05:37:23;22.80;;;8.68;;
56122;SDS011;42426;46.104;19.656;2023-07-13T05:39:48;16.55;;;7.10;;
56122;SDS011;42426;46.104;19.656;2023-07-13T05:42:14;21.58;;;9.18;;
56122;SDS011;42426;46.104;19.656;2023-07-13T05:44:40;10.98;;;6.70;;
56122;SDS011;42426;46.104;19.656;2023-07-13T05:47:05;13.02;;;6.75;;
56122;SDS011;42426;46.104;19.656;2023-07-13T05:49:31;26.17;;;6.90;;
56122;SDS011;42426;46.104;19.656;2023-07-13T05:51:57;29.23;;;7.25;;
56122;SDS011;42426;46.104;19.656;2023-07-13T05:54:23;11.43;;;5.97;;
56122;SDS011;42426;46.104;19.656;2023-07-13T05:56:49;11.38;;;4.75;;
56122;SDS011;42426;46.104;19.656;2023-07-13T05:59:14;10.68;;;4.07;;
56122;SDS011;42426;46.104;19.656;2023-07-13T06:01:40;16.58;;;5.63;;
56122;SDS011;42426;46.104;19.656;2023-07-13T06:04:06;13.07;;;4.93;;
56122;SDS011;42426;46.104;19.656;2023-07-13T06:06:32;10.13;;;5.47;;
56122;SDS011;42426;46.104;19.656;2023-07-13T06:08:58;14.50;;;5.07;;
56122;SDS011;42426;46.104;19.656;2023-07-13T06:11:25;6.82;;;4.28;;
56122;SDS011;42426;46.104;19.656;2023-07-13T06:13:52;9.02;;;3.92;;
56122;SDS011;42426;46.104;19.656;2023-07-13T06:16:19;10.27;;;3.95;;
56122;SDS011;42426;46.104;19.656;2023-07-13T06:18:45;8.10;;;3.80;;
56122;SDS011;42426;46.104;19.656;2023-07-13T06:21:17;7.50;;;3.80;;
56122;SDS011;42426;46.104;19.656;2023-07-13T06:23:46;11.40;;;4.72;;
56122;SDS011;42426;46.104;19.656;2023-07-13T06:26:15;13.48;;;4.57;;
56122;SDS011;42426;46.104;19.656;2023-07-13T06:28:42;11.40;;;4.18;;
56122;SDS011;42426;46.104;19.656;2023-07-13T06:31:09;8.77;;;3.97;;
56122;SDS011;42426;46.104;19.656;2023-07-13T06:33:36;18.80;;;6.20;;
56122;SDS011;42426;46.104;19.656;2023-07-13T06:36:03;11.00;;;4.35;;
56122;SDS011;42426;46.104;19.656;2023-07-13T06:38:30;9.85;;;4.22;;
56122;SDS011;42426;46.104;19.656;2023-07-13T06:40:56;7.40;;;3.63;;
56122;SDS011;42426;46.104;19.656;2023-07-13T06:43:22;11.63;;;3.90;;
56122;SDS011;42426;46.104;19.656;2023-07-13T06:45:54;9.80;;;4.80;;
56122;SDS011;42426;46.104;19.656;2023-07-13T06:48:21;8.18;;;3.42;;
56122;SDS011;42426;46.104;19.656;2023-07-13T06:50:48;16.90;;;5.18;;
56122;SDS011;42426;46.104;19.656;2023-07-13T06:53:15;7.93;;;5.50;;
56122;SDS011;42426;46.104;19.656;2023-07-13T06:55:43;6.97;;;4.40;;
56122;SDS011;42426;46.104;19.656;2023-07-13T06:58:09;10.65;;;4.43;;
56122;SDS011;42426;46.104;19.656;2023-07-13T07:00:34;8.65;;;4.18;;
56122;SDS011;42426;46.104;19.656;2023-07-13T07:03:00;6.18;;;4.28;;
56122;SDS011;42426;46.104;19.656;2023-07-13T07:05:26;8.60;;;3.60;;
56122;SDS011;42426;46.104;19.656;2023-07-13T07:07:54;5.30;;;3.67;;
56122;SDS011;42426;46.104;19.656;2023-07-13T07:10:20;7.03;;;4.30;;
56122;SDS011;42426;46.104;19.656;2023-07-13T07:12:46;5.57;;;3.55;;
56122;SDS011;42426;46.104;19.656;2023-07-13T07:15:12;5.90;;;4.03;;
56122;SDS011;42426;46.104;19.656;2023-07-13T07:17:39;4.00;;;3.60;;
56122;SDS011;42426;46.104;19.656;2023-07-13T07:20:07;5.78;;;3.40;;
56122;SDS011;42426;46.104;19.656;2023-07-13T07:22:33;8.18;;;3.22;;
56122;SDS011;42426;46.104;19.656;2023-07-13T07:24:59;5.40;;;3.13;;
56122;SDS011;42426;46.104;19.656;2023-07-13T07:27:24;7.55;;;3.53;;
56122;SDS011;42426;46.104;19.656;2023-07-13T07:29:52;8.55;;;3.47;;
56122;SDS011;42426;46.104;19.656;2023-07-13T07:32:18;6.40;;;4.40;;
56122;SDS011;42426;46.104;19.656;2023-07-13T07:34:45;5.55;;;3.17;;
56122;SDS011;42426;46.104;19.656;2023-07-13T07:37:12;6.82;;;3.30;;
56122;SDS011;42426;46.104;19.656;2023-07-13T07:39:38;4.65;;;3.10;;
56122;SDS011;42426;46.104;19.656;2023-07-13T07:42:04;7.18;;;3.20;;
56122;SDS011;42426;46.104;19.656;2023-07-13T07:44:31;5.75;;;2.70;;
56122;SDS011;42426;46.104;19.656;2023-07-13T07:46:57;5.93;;;3.30;;
56122;SDS011;42426;46.104;19.656;2023-07-13T07:49:23;7.45;;;3.33;;
56122;SDS011;42426;46.104;19.656;2023-07-13T07:51:49;4.35;;;2.92;;
56122;SDS011;42426;46.104;19.656;2023-07-13T07:54:15;7.88;;;3.63;;
56122;SDS011;42426;46.104;19.656;2023-07-13T07:56:41;5.40;;;3.28;;
56122;SDS011;42426;46.104;19.656;2023-07-13T07:59:07;5.43;;;3.00;;
56122;SDS011;42426;46.104;19.656;2023-07-13T08:01:33;6.25;;;3.47;;
56122;SDS011;42426;46.104;19.656;2023-07-13T08:03:59;6.03;;;3.55;;
56122;SDS011;42426;46.104;19.656;2023-07-13T08:06:25;7.03;;;3.78;;
56122;SDS011;42426;46.104;19.656;2023-07-13T08:08:50;4.50;;;3.55;;
56122;SDS011;42426;46.104;19.656;2023-07-13T08:11:16;5.78;;;3.50;;
56122;SDS011;42426;46.104;19.656;2023-07-13T08:13:42;5.57;;;3.63;;
56122;SDS011;42426;46.104;19.656;2023-07-13T08:16:08;6.47;;;2.90;;
56122;SDS011;42426;46.104;19.656;2023-07-13T08:18:34;3.28;;;2.88;;
56122;SDS011;42426;46.104;19.656;2023-07-13T08:21:03;4.97;;;3.00;;
56122;SDS011;42426;46.104;19.656;2023-07-13T08:23:30;5.03;;;2.78;;
56122;SDS011;42426;46.104;19.656;2023-07-13T08:25:57;5.70;;;3.10;;
56122;SDS011;42426;46.104;19.656;2023-07-13T08:28:23;4.25;;;2.70;;
56122;SDS011;42426;46.104;19.656;2023-07-13T08:30:49;5.15;;;2.85;;
56122;SDS011;42426;46.104;19.656;2023-07-13T08:33:16;5.68;;;3.30;;
56122;SDS011;42426;46.104;19.656;2023-07-13T08:35:46;6.78;;;3.80;;
56122;SDS011;42426;46.104;19.656;2023-07-13T08:38:13;5.20;;;3.20;;
56122;SDS011;42426;46.104;19.656;2023-07-13T08:40:39;4.43;;;3.85;;
56122;SDS011;42426;46.104;19.656;2023-07-13T08:43:07;6.28;;;3.78;;
56122;SDS011;42426;46.104;19.656;2023-07-13T08:45:42;7.88;;;3.55;;
56122;SDS011;42426;46.104;19.656;2023-07-13T08:51:16;5.00;;;2.92;;
56122;SDS011;42426;46.104;19.656;2023-07-13T08:53:35;7.43;;;3.50;;
56122;SDS011;42426;46.104;19.656;2023-07-13T08:56:02;5.15;;;2.97;;
56122;SDS011;42426;46.104;19.656;2023-07-13T08:58:32;8.95;;;3.63;;
56122;SDS011;42426;46.104;19.656;2023-07-13T09:01:00;7.30;;;3.67;;
56122;SDS011;42426;46.104;19.656;2023-07-13T09:03:43;4.82;;;2.70;;
56122;SDS011;42426;46.104;19.656;2023-07-13T09:06:26;3.53;;;2.83;;
56122;SDS011;42426;46.104;19.656;2023-07-13T09:16:40;5.00;;;2.80;;
56122;SDS011;42426;46.104;19.656;2023-07-13T09:19:08;5.57;;;2.83;;
56122;SDS011;42426;46.104;19.656;2023-07-13T09:21:40;3.17;;;2.83;;
56122;SDS011;42426;46.104;19.656;2023-07-13T09:26:45;5.30;;;2.78;;
56122;SDS011;42426;46.104;19.656;2023-07-13T09:29:13;4.18;;;2.80;;
56122;SDS011;42426;46.104;19.656;2023-07-13T09:31:44;5.18;;;2.72;;
56122;SDS011;42426;46.104;19.656;2023-07-13T09:34:12;3.33;;;3.03;;
56122;SDS011;42426;46.104;19.656;2023-07-13T09:36:38;4.93;;;3.17;;
56122;SDS011;42426;46.104;19.656;2023-07-13T09:44:15;4.00;;;2.97;;
56122;SDS011;42426;46.104;19.656;2023-07-13T09:46:46;5.18;;;3.47;;
56122;SDS011;42426;46.104;19.656;2023-07-13T09:49:17;2.97;;;2.67;;
56122;SDS011;42426;46.104;19.656;2023-07-13T09:51:43;5.25;;;2.95;;
56122;SDS011;42426;46.104;19.656;2023-07-13T09:54:23;4.40;;;2.85;;
56122;SDS011;42426;46.104;19.656;2023-07-13T09:56:59;5.65;;;2.95;;
56122;SDS011;42426;46.104;19.656;2023-07-13T09:59:37;6.07;;;3.42;;
56122;SDS011;42426;46.104;19.656;2023-07-13T10:04:55;4.00;;;2.80;;
56122;SDS011;42426;46.104;19.656;2023-07-13T10:07:22;4.30;;;2.95;;
56122;SDS011;42426;46.104;19.656;2023-07-13T10:09:56;4.57;;;3.00;;
56122;SDS011;42426;46.104;19.656;2023-07-13T10:14:54;3.85;;;2.72;;
56122;SDS011;42426;46.104;19.656;2023-07-13T10:17:25;6.45;;;3.50;;
56122;SDS011;42426;46.104;19.656;2023-07-13T10:19:52;4.78;;;3.78;;
56122;SDS011;42426;46.104;19.656;2023-07-13T10:22:29;7.30;;;2.67;;
56122;SDS011;42426;46.104;19.656;2023-07-13T10:24:58;3.90;;;3.10;;
56122;SDS011;42426;46.104;19.656;2023-07-13T10:27:35;5.22;;;2.97;;
56122;SDS011;42426;46.104;19.656;2023-07-13T10:30:07;8.63;;;2.90;;
56122;SDS011;42426;46.104;19.656;2023-07-13T10:32:35;4.40;;;2.75;;
56122;SDS011;42426;46.104;19.656;2023-07-13T10:35:01;3.33;;;2.67;;
56122;SDS011;42426;46.104;19.656;2023-07-13T10:37:40;7.15;;;2.65;;
56122;SDS011;42426;46.104;19.656;2023-07-13T10:40:18;8.20;;;2.95;;
56122;SDS011;42426;46.104;19.656;2023-07-13T10:42:51;6.93;;;2.78;;
56122;SDS011;42426;46.104;19.656;2023-07-13T10:45:20;5.85;;;3.00;;
56122;SDS011;42426;46.104;19.656;2023-07-13T10:47:48;3.88;;;3.13;;
56122;SDS011;42426;46.104;19.656;2023-07-13T10:50:21;3.38;;;3.08;;
56122;SDS011;42426;46.104;19.656;2023-07-13T10:52:49;3.40;;;3.10;;
56122;SDS011;42426;46.104;19.656;2023-07-13T10:55:32;5.32;;;2.72;;
56122;SDS011;42426;46.104;19.656;2023-07-13T11:00:43;3.28;;;2.97;;
56122;SDS011;42426;46.104;19.656;2023-07-13T11:03:13;7.22;;;3.28;;
56122;SDS011;42426;46.104;19.656;2023-07-13T11:05:40;4.10;;;2.92;;
56122;SDS011;42426;46.104;19.656;2023-07-13T11:17:03;6.10;;;3.20;;
56122;SDS011;42426;46.104;19.656;2023-07-13T11:21:28;6.38;;;3.78;;
56122;SDS011;42426;46.104;19.656;2023-07-13T11:29:33;8.45;;;4.38;;
56122;SDS011;42426;46.104;19.656;2023-07-13T11:31:52;7.25;;;4.47;;
56122;SDS011;42426;46.104;19.656;2023-07-13T11:34:30;5.00;;;3.65;;
56122;SDS011;42426;46.104;19.656;2023-07-13T11:36:57;6.03;;;3.42;;
56122;SDS011;42426;46.104;19.656;2023-07-13T11:39:35;5.30;;;3.63;;
56122;SDS011;42426;46.104;19.656;2023-07-13T11:42:03;5.45;;;3.30;;
56122;SDS011;42426;46.104;19.656;2023-07-13T11:44:31;7.60;;;4.00;;
56122;SDS011;42426;46.104;19.656;2023-07-13T11:47:09;4.18;;;3.47;;
56122;SDS011;42426;46.104;19.656;2023-07-13T11:49:41;10.45;;;3.70;;
56122;SDS011;42426;46.104;19.656;2023-07-13T11:52:11;5.40;;;3.63;;
56122;SDS011;42426;46.104;19.656;2023-07-13T11:54:47;5.07;;;3.80;;
56122;SDS011;42426;46.104;19.656;2023-07-13T11:57:32;4.70;;;3.50;;
56122;SDS011;42426;46.104;19.656;2023-07-13T12:00:00;5.25;;;3.47;;
56122;SDS011;42426;46.104;19.656;2023-07-13T12:02:31;3.92;;;3.53;;
56122;SDS011;42426;46.104;19.656;2023-07-13T12:04:58;5.32;;;4.28;;
56122;SDS011;42426;46.104;19.656;2023-07-13T12:07:27;10.13;;;3.72;;
56122;SDS011;42426;46.104;19.656;2023-07-13T12:09:58;4.35;;;3.33;;
56122;SDS011;42426;46.104;19.656;2023-07-13T12:12:28;6.55;;;4.45;;
56122;SDS011;42426;46.104;19.656;2023-07-13T12:14:55;6.85;;;3.88;;
56122;SDS011;42426;46.104;19.656;2023-07-13T12:17:22;7.95;;;3.90;;
56122;SDS011;42426;46.104;19.656;2023-07-13T12:19:50;7.05;;;3.88;;
56122;SDS011;42426;46.104;19.656;2023-07-13T12:22:17;5.47;;;3.50;;
56122;SDS011;42426;46.104;19.656;2023-07-13T12:24:44;7.90;;;4.55;;
56122;SDS011;42426;46.104;19.656;2023-07-13T12:27:21;12.90;;;4.72;;
56122;SDS011;42426;46.104;19.656;2023-07-13T12:30:21;5.50;;;3.70;;
56122;SDS011;42426;46.104;19.656;2023-07-13T12:32:38;6.60;;;4.20;;
56122;SDS011;42426;46.104;19.656;2023-07-13T12:35:12;5.05;;;3.80;;
56122;SDS011;42426;46.104;19.656;2023-07-13T12:37:41;5.07;;;4.43;;
56122;SDS011;42426;46.104;19.656;2023-07-13T12:40:12;6.18;;;4.35;;
56122;SDS011;42426;46.104;19.656;2023-07-13T12:42:39;6.93;;;4.20;;
56122;SDS011;42426;46.104;19.656;2023-07-13T12:45:21;7.45;;;4.47;;
56122;SDS011;42426;46.104;19.656;2023-07-13T12:47:48;11.73;;;5.25;;
56122;SDS011;42426;46.104;19.656;2023-07-13T12:50:19;6.20;;;4.63;;
56122;SDS011;42426;46.104;19.656;2023-07-13T12:52:50;6.43;;;4.70;;
56122;SDS011;42426;46.104;19.656;2023-07-13T12:55:18;4.88;;;4.38;;
56122;SDS011;42426;46.104;19.656;2023-07-13T13:00:19;7.70;;;4.97;;
56122;SDS011;42426;46.104;19.656;2023-07-13T13:02:48;7.47;;;5.55;;
56122;SDS011;42426;46.104;19.656;2023-07-13T13:05:16;7.00;;;4.40;;
56122;SDS011;42426;46.104;19.656;2023-07-13T13:07:42;5.32;;;4.50;;
56122;SDS011;42426;46.104;19.656;2023-07-13T13:10:11;7.70;;;4.22;;
56122;SDS011;42426;46.104;19.656;2023-07-13T13:12:38;11.25;;;4.65;;
56122;SDS011;42426;46.104;19.656;2023-07-13T13:15:07;4.07;;;3.65;;
56122;SDS011;42426;46.104;19.656;2023-07-13T13:17:33;4.25;;;3.85;;
56122;SDS011;42426;46.104;19.656;2023-07-13T13:20:00;5.35;;;4.38;;
56122;SDS011;42426;46.104;19.656;2023-07-13T13:22:26;6.05;;;4.28;;
56122;SDS011;42426;46.104;19.656;2023-07-13T13:24:52;4.85;;;3.95;;
56122;SDS011;42426;46.104;19.656;2023-07-13T13:27:19;6.60;;;4.80;;
56122;SDS011;42426;46.104;19.656;2023-07-13T13:29:46;5.30;;;4.05;;
56122;SDS011;42426;46.104;19.656;2023-07-13T13:32:15;6.05;;;5.03;;
56122;SDS011;42426;46.104;19.656;2023-07-13T13:34:41;8.25;;;4.80;;
56122;SDS011;42426;46.104;19.656;2023-07-13T13:37:18;4.95;;;4.47;;
56122;SDS011;42426;46.104;19.656;2023-07-13T13:39:45;5.68;;;4.45;;
56122;SDS011;42426;46.104;19.656;2023-07-13T13:42:12;9.95;;;4.68;;
56122;SDS011;42426;46.104;19.656;2023-07-13T13:44:38;6.82;;;4.20;;
56122;SDS011;42426;46.104;19.656;2023-07-13T13:47:51;5.43;;;4.22;;
56122;SDS011;42426;46.104;19.656;2023-07-13T13:49:52;6.60;;;4.97;;
56122;SDS011;42426;46.104;19.656;2023-07-13T13:52:18;5.07;;;4.35;;
56122;SDS011;42426;46.104;19.656;2023-07-13T13:54:44;7.32;;;5.00;;
56122;SDS011;42426;46.104;19.656;2023-07-13T13:57:10;5.28;;;4.38;;
56122;SDS011;42426;46.104;19.656;2023-07-13T13:59:37;4.78;;;4.38;;
56122;SDS011;42426;46.104;19.656;2023-07-13T14:02:13;5.50;;;4.70;;
56122;SDS011;42426;46.104;19.656;2023-07-13T14:04:47;6.87;;;5.00;;
56122;SDS011;42426;46.104;19.656;2023-07-13T14:07:14;6.38;;;4.35;;
56122;SDS011;42426;46.104;19.656;2023-07-13T14:09:40;8.20;;;5.15;;
56122;SDS011;42426;46.104;19.656;2023-07-13T14:12:08;6.57;;;5.15;;
56122;SDS011;42426;46.104;19.656;2023-07-13T14:14:36;6.40;;;4.65;;
56122;SDS011;42426;46.104;19.656;2023-07-13T14:17:03;5.80;;;4.78;;
56122;SDS011;42426;46.104;19.656;2023-07-13T14:19:29;5.25;;;4.40;;
56122;SDS011;42426;46.104;19.656;2023-07-13T14:21:55;7.70;;;4.40;;
56122;SDS011;42426;46.104;19.656;2023-07-13T14:24:21;8.98;;;4.90;;
56122;SDS011;42426;46.104;19.656;2023-07-13T14:26:47;8.70;;;5.60;;
56122;SDS011;42426;46.104;19.656;2023-07-13T14:29:14;6.22;;;4.60;;
56122;SDS011;42426;46.104;19.656;2023-07-13T14:31:42;6.60;;;4.85;;
56122;SDS011;42426;46.104;19.656;2023-07-13T14:34:11;7.53;;;4.60;;
56122;SDS011;42426;46.104;19.656;2023-07-13T14:36:43;12.30;;;5.40;;
56122;SDS011;42426;46.104;19.656;2023-07-13T14:39:20;6.22;;;5.43;;
56122;SDS011;42426;46.104;19.656;2023-07-13T14:41:48;9.43;;;5.85;;
56122;SDS011;42426;46.104;19.656;2023-07-13T14:44:16;10.18;;;5.20;;
56122;SDS011;42426;46.104;19.656;2023-07-13T14:46:42;7.32;;;5.03;;
56122;SDS011;42426;46.104;19.656;2023-07-13T14:51:38;7.80;;;5.20;;
56122;SDS011;42426;46.104;19.656;2023-07-13T14:54:05;5.93;;;5.32;;
56122;SDS011;42426;46.104;19.656;2023-07-13T14:56:31;9.32;;;4.88;;
56122;SDS011;42426;46.104;19.656;2023-07-13T14:58:57;6.43;;;4.93;;
56122;SDS011;42426;46.104;19.656;2023-07-13T15:01:23;6.28;;;4.32;;
56122;SDS011;42426;46.104;19.656;2023-07-13T15:03:50;5.78;;;4.68;;
56122;SDS011;42426;46.104;19.656;2023-07-13T15:06:17;8.82;;;5.13;;
56122;SDS011;42426;46.104;19.656;2023-07-13T15:08:44;10.60;;;5.05;;
56122;SDS011;42426;46.104;19.656;2023-07-13T15:11:10;5.28;;;4.75;;
56122;SDS011;42426;46.104;19.656;2023-07-13T15:13:37;5.95;;;4.30;;
56122;SDS011;42426;46.104;19.656;2023-07-13T15:16:04;7.20;;;4.30;;
56122;SDS011;42426;46.104;19.656;2023-07-13T15:18:30;7.90;;;5.07;;
56122;SDS011;42426;46.104;19.656;2023-07-13T15:20:58;9.88;;;4.93;;